createdAt,value
2019-05-26T00:01:12.919Z,4.87
2019-05-26T00:03:19.393Z,4.80
2019-05-26T00:05:26.751Z,5.23
2019-05-26T00:07:33.125Z,4.27
2019-05-26T00:09:39.526Z,5.47
2019-05-26T00:11:46.470Z,5.30
2019-05-26T00:13:54.270Z,4.90
2019-05-26T00:16:00.850Z,5.27
2019-05-26T00:18:07.200Z,5.07
2019-05-26T00:20:14.669Z,5.13
2019-05-26T00:22:23.513Z,4.77
2019-05-26T00:24:29.865Z,4.67
2019-05-26T00:26:36.092Z,5.00
2019-05-26T00:28:42.790Z,4.97
2019-05-26T00:30:49.190Z,4.90
2019-05-26T00:32:56.128Z,4.67
2019-05-26T00:35:02.400Z,4.30
2019-05-26T00:37:08.957Z,4.50
2019-05-26T00:39:15.328Z,4.40
2019-05-26T00:41:21.765Z,4.67
2019-05-26T00:43:32.346Z,4.60
2019-05-26T00:45:39.029Z,5.33
2019-05-26T00:47:45.786Z,5.50
2019-05-26T00:49:52.165Z,5.00
2019-05-26T00:51:58.529Z,5.47
2019-05-26T00:54:05.072Z,5.43
2019-05-26T00:56:11.959Z,5.60
2019-05-26T00:58:18.215Z,6.07
2019-05-26T01:00:44.839Z,5.70
2019-05-26T01:02:51.132Z,5.83
2019-05-26T01:04:57.660Z,6.83
2019-05-26T01:07:05.156Z,6.23
2019-05-26T01:09:11.850Z,5.50
2019-05-26T01:11:19.450Z,6.03
2019-05-26T01:13:25.720Z,5.77
2019-05-26T01:15:32.884Z,5.40
2019-05-26T01:17:39.344Z,5.77
2019-05-26T01:19:45.702Z,6.07
2019-05-26T01:21:53.791Z,5.57
2019-05-26T01:24:00.475Z,6.00
2019-05-26T01:26:08.401Z,6.30
2019-05-26T01:28:14.614Z,6.23
2019-05-26T01:30:24.803Z,5.60
2019-05-26T01:32:31.256Z,5.27
2019-05-26T01:34:37.519Z,6.33
2019-05-26T01:36:43.979Z,5.77
2019-05-26T01:38:52.244Z,5.87
2019-05-26T01:40:58.557Z,5.90
2019-05-26T01:43:05.102Z,5.60
2019-05-26T01:45:12.116Z,6.53
2019-05-26T01:47:18.463Z,6.07
2019-05-26T01:49:24.717Z,5.33
2019-05-26T01:51:31.092Z,5.03
2019-05-26T01:53:37.646Z,6.33
2019-05-26T01:55:44.013Z,5.50
2019-05-26T01:57:50.382Z,5.70
2019-05-26T01:59:58.436Z,5.63
2019-05-26T02:02:05.269Z,5.93
2019-05-26T02:04:13.046Z,5.93
2019-05-26T02:06:19.820Z,5.07
2019-05-26T02:08:38.440Z,5.60
2019-05-26T02:10:34.082Z,4.33
2019-05-26T02:12:40.439Z,5.00
2019-05-26T02:14:46.906Z,5.33
2019-05-26T02:16:53.154Z,4.43
2019-05-26T02:18:59.528Z,5.23
2019-05-26T02:21:06.074Z,3.90
2019-05-26T02:23:13.271Z,4.93
2019-05-26T02:25:20.935Z,4.13
2019-05-26T02:27:27.346Z,4.80
2019-05-26T02:29:33.610Z,4.40
2019-05-26T02:31:39.867Z,4.87
2019-05-26T02:33:46.449Z,3.70
2019-05-26T02:35:52.715Z,4.10
2019-05-26T02:37:59.132Z,4.10
2019-05-26T02:40:08.774Z,4.07
2019-05-26T02:42:19.779Z,4.13
2019-05-26T02:44:26.951Z,5.10
2019-05-26T02:46:34.035Z,4.30
2019-05-26T02:48:40.414Z,4.30
2019-05-26T02:50:46.751Z,4.43
2019-05-26T02:52:53.290Z,3.83
2019-05-26T02:54:59.587Z,4.07
2019-05-26T02:57:05.951Z,4.43
2019-05-26T02:59:12.533Z,4.17
2019-05-26T03:01:19.877Z,4.30
2019-05-26T03:03:26.778Z,4.00
2019-05-26T03:05:34.048Z,4.33
2019-05-26T03:07:43.952Z,3.47
2019-05-26T03:09:51.906Z,3.63
2019-05-26T03:12:00.704Z,3.47
2019-05-26T03:14:07.601Z,3.90
2019-05-26T03:16:18.546Z,3.97
2019-05-26T03:18:24.807Z,4.13
2019-05-26T03:20:35.614Z,3.60
2019-05-26T03:22:47.881Z,4.03
2019-05-26T03:24:55.168Z,4.00
2019-05-26T03:27:01.980Z,4.87
2019-05-26T03:29:08.296Z,2.77
2019-05-26T03:31:14.799Z,3.70
2019-05-26T03:33:22.261Z,2.97
2019-05-26T03:35:29.653Z,3.63
2019-05-26T03:37:35.902Z,4.00
2019-05-26T03:39:45.965Z,3.67
2019-05-26T03:41:51.279Z,3.03
2019-05-26T03:43:57.555Z,3.50
2019-05-26T03:46:20.407Z,3.60
2019-05-26T03:48:27.273Z,3.37
2019-05-26T03:50:33.564Z,3.37
2019-05-26T03:52:39.895Z,2.93
2019-05-26T03:54:46.175Z,3.00
2019-05-26T03:56:53.251Z,3.27
2019-05-26T03:58:59.801Z,3.23
2019-05-26T04:01:06.603Z,3.40
2019-05-26T04:03:12.937Z,3.13
2019-05-26T04:05:19.217Z,3.30
2019-05-26T04:07:29.071Z,3.03
2019-05-26T04:09:38.496Z,3.47
2019-05-26T04:11:44.728Z,3.57
2019-05-26T04:13:51.940Z,3.40
2019-05-26T04:15:58.404Z,3.33
2019-05-26T04:18:04.964Z,3.30
2019-05-26T04:20:11.492Z,3.30
2019-05-26T04:22:17.776Z,2.90
2019-05-26T04:24:24.352Z,3.17
2019-05-26T04:26:30.834Z,2.90
2019-05-26T04:34:56.081Z,2.67
2019-05-26T04:37:02.333Z,3.10
2019-05-26T04:39:09.203Z,2.83
2019-05-26T04:41:15.468Z,3.13
2019-05-26T04:43:21.811Z,3.27
2019-05-26T04:47:33.421Z,2.93
2019-05-26T04:49:40.856Z,3.07
2019-05-26T04:51:47.166Z,2.73
2019-05-26T04:53:53.528Z,3.43
2019-05-26T04:56:00.097Z,2.37
2019-05-26T04:58:07.894Z,3.20
2019-05-26T05:00:16.001Z,3.43
2019-05-26T05:02:22.265Z,2.97
2019-05-26T05:04:28.728Z,2.90
2019-05-26T05:06:35.085Z,2.90
2019-05-26T05:08:41.564Z,2.97
2019-05-26T05:10:47.916Z,2.80
2019-05-26T05:12:54.373Z,3.43
2019-05-26T05:15:02.478Z,3.80
2019-05-26T05:17:09.265Z,3.30
2019-05-26T05:19:15.612Z,2.77
2019-05-26T05:21:22.181Z,3.63
2019-05-26T05:23:28.544Z,3.30
2019-05-26T05:25:36.448Z,3.53
2019-05-26T05:27:42.895Z,3.33
2019-05-26T05:29:49.291Z,4.30
2019-05-26T05:31:55.541Z,4.40
2019-05-26T05:34:01.781Z,4.30
2019-05-26T05:36:08.058Z,4.30
2019-05-26T05:38:15.332Z,3.77
2019-05-26T05:40:22.105Z,3.97
2019-05-26T05:42:28.342Z,4.00
2019-05-26T05:44:34.719Z,3.23
2019-05-26T05:46:40.984Z,3.90
2019-05-26T05:48:47.249Z,3.10
2019-05-26T05:50:53.500Z,3.27
2019-05-26T05:52:59.784Z,2.90
2019-05-26T05:55:08.385Z,3.93
2019-05-26T05:57:14.636Z,2.93
2019-05-26T05:59:21.814Z,3.67
2019-05-26T06:01:28.095Z,3.83
2019-05-26T06:03:34.548Z,3.40
2019-05-26T06:05:40.915Z,3.57
2019-05-26T06:07:48.740Z,3.70
2019-05-26T06:09:55.215Z,3.50
2019-05-26T06:12:01.537Z,3.00
2019-05-26T06:14:07.794Z,3.63
2019-05-26T06:16:14.245Z,3.50
2019-05-26T06:18:20.837Z,3.00
2019-05-26T06:20:27.090Z,3.33
2019-05-26T06:22:33.363Z,2.90
2019-05-26T06:24:39.919Z,3.30
2019-05-26T06:26:46.260Z,3.73
2019-05-26T06:28:52.876Z,3.30
2019-05-26T06:30:59.212Z,3.67
2019-05-26T06:33:05.683Z,3.30
2019-05-26T06:35:12.995Z,3.50
2019-05-26T06:37:19.230Z,3.13
2019-05-26T06:39:25.887Z,3.17
2019-05-26T06:41:34.010Z,3.87
2019-05-26T06:43:40.693Z,3.43
2019-05-26T06:45:47.133Z,3.43
2019-05-26T06:47:54.937Z,3.53
2019-05-26T06:50:02.859Z,3.07
2019-05-26T06:52:09.385Z,4.00
2019-05-26T06:54:15.787Z,3.50
2019-05-26T06:56:22.125Z,3.23
2019-05-26T06:58:29.810Z,3.60
2019-05-26T07:00:36.205Z,2.90
2019-05-26T07:02:42.939Z,3.17
2019-05-26T07:04:49.525Z,3.13
2019-05-26T07:06:56.483Z,3.07
2019-05-26T07:09:02.957Z,3.23
2019-05-26T07:11:09.514Z,2.30
2019-05-26T07:13:15.906Z,2.97
2019-05-26T07:15:22.460Z,3.03
2019-05-26T07:17:29.331Z,2.53
2019-05-26T07:19:35.911Z,2.57
2019-05-26T07:21:42.580Z,2.63
2019-05-26T07:23:48.934Z,3.20
2019-05-26T07:25:55.195Z,3.17
2019-05-26T07:28:01.446Z,3.20
2019-05-26T07:30:09.626Z,2.53
2019-05-26T07:32:15.929Z,2.73
2019-05-26T07:34:22.301Z,2.63
2019-05-26T07:36:28.670Z,2.63
2019-05-26T07:38:35.224Z,3.50
2019-05-26T07:40:41.583Z,2.37
2019-05-26T07:42:48.958Z,2.43
2019-05-26T07:44:55.228Z,2.73
2019-05-26T07:47:01.505Z,2.60
2019-05-26T07:49:08.171Z,2.27
2019-05-26T07:51:14.627Z,2.70
2019-05-26T07:53:21.186Z,2.93
2019-05-26T07:55:27.435Z,2.40
2019-05-26T07:57:33.800Z,2.33
2019-05-26T07:59:40.285Z,2.57
2019-05-26T08:01:46.647Z,2.80
2019-05-26T08:03:53.589Z,2.77
2019-05-26T08:05:59.858Z,2.73
2019-05-26T08:08:12.598Z,2.40
2019-05-26T08:10:15.055Z,2.17
2019-05-26T08:12:26.164Z,2.20
2019-05-26T08:14:29.545Z,2.10
2019-05-26T08:16:35.793Z,1.50
2019-05-26T08:18:42.766Z,2.00
2019-05-26T08:20:49.021Z,2.27
2019-05-26T08:22:56.822Z,2.20
2019-05-26T08:25:03.375Z,2.23
2019-05-26T08:27:09.836Z,2.20
2019-05-26T08:29:17.635Z,1.87
2019-05-26T08:31:24.743Z,2.60
2019-05-26T08:33:31.195Z,2.23
2019-05-26T08:35:38.805Z,2.70
2019-05-26T08:37:46.591Z,2.43
2019-05-26T08:39:53.239Z,2.40
2019-05-26T08:41:59.819Z,2.07
2019-05-26T08:44:07.408Z,2.30
2019-05-26T08:46:15.505Z,3.20
2019-05-26T08:48:21.794Z,1.97
2019-05-26T08:50:28.220Z,2.23
2019-05-26T08:52:34.488Z,1.90
2019-05-26T08:54:40.849Z,2.20
2019-05-26T08:56:47.225Z,1.53
2019-05-26T08:58:53.581Z,2.13
2019-05-26T09:00:59.945Z,2.43
2019-05-26T09:03:06.329Z,2.30
2019-05-26T09:05:13.407Z,2.30
2019-05-26T09:07:21.285Z,2.33
2019-05-26T09:09:27.564Z,1.80
2019-05-26T09:11:38.028Z,2.60
2019-05-26T09:13:43.781Z,2.07
2019-05-26T09:15:50.315Z,2.37
2019-05-26T09:18:00.874Z,1.97
2019-05-26T09:20:11.753Z,2.30
2019-05-26T09:22:18.730Z,2.60
2019-05-26T09:24:25.141Z,2.10
2019-05-26T09:26:31.446Z,2.60
2019-05-26T09:28:39.373Z,2.10
2019-05-26T09:30:47.274Z,1.57
2019-05-26T09:32:55.340Z,2.50
2019-05-26T09:35:04.016Z,2.30
2019-05-26T09:37:10.400Z,2.53
2019-05-26T09:39:16.737Z,2.30
2019-05-26T09:41:24.495Z,2.60
2019-05-26T09:43:32.323Z,1.80
2019-05-26T09:45:40.120Z,2.33
2019-05-26T09:47:46.671Z,2.90
2019-05-26T09:49:53.733Z,1.30
2019-05-26T09:52:01.929Z,2.40
2019-05-26T09:54:12.520Z,2.30
2019-05-26T09:56:17.945Z,1.90
2019-05-26T09:58:24.299Z,2.30
2019-05-26T10:00:30.991Z,2.13
2019-05-26T10:02:37.480Z,2.10
2019-05-26T10:04:46.439Z,1.73
2019-05-26T10:06:54.363Z,2.87
2019-05-26T10:09:02.181Z,2.13
2019-05-26T10:11:08.923Z,1.80
2019-05-26T10:13:30.790Z,1.63
2019-05-26T10:15:26.267Z,1.70
2019-05-26T10:17:33.749Z,2.03
2019-05-26T10:19:40.003Z,1.60
2019-05-26T10:21:46.561Z,1.87
2019-05-26T10:23:53.352Z,1.50
2019-05-26T10:25:59.705Z,1.70
2019-05-26T10:28:05.980Z,2.17
2019-05-26T10:30:15.309Z,2.00
2019-05-26T10:32:21.867Z,2.30
2019-05-26T10:34:28.260Z,1.50
2019-05-26T10:36:34.507Z,1.87
2019-05-26T10:38:42.802Z,1.80
2019-05-26T10:40:49.064Z,1.57
2019-05-26T10:42:55.324Z,1.70
2019-05-26T10:45:02.190Z,1.57
2019-05-26T10:47:08.473Z,1.73
2019-05-26T10:49:14.744Z,1.43
2019-05-26T10:51:21.173Z,1.50
2019-05-26T10:53:28.889Z,1.40
2019-05-26T10:55:35.542Z,1.50
2019-05-26T10:57:42.024Z,1.60
2019-05-26T10:59:48.265Z,2.20
2019-05-26T11:01:55.254Z,1.50
2019-05-26T11:04:01.602Z,1.43
2019-05-26T11:06:08.182Z,2.30
2019-05-26T11:08:14.418Z,1.97
2019-05-26T11:10:21.543Z,1.60
2019-05-26T11:12:28.184Z,1.87
2019-05-26T11:14:34.449Z,1.40
2019-05-26T11:16:40.707Z,1.20
2019-05-26T11:18:47.291Z,1.50
2019-05-26T11:20:53.659Z,1.43
2019-05-26T11:23:00.247Z,1.67
2019-05-26T11:25:10.891Z,1.30
2019-05-26T11:27:19.931Z,1.27
2019-05-26T11:29:26.440Z,1.50
2019-05-26T11:31:32.924Z,1.50
2019-05-26T11:33:39.746Z,1.53
2019-05-26T11:35:46.265Z,1.80
2019-05-26T11:37:52.522Z,2.10
2019-05-26T11:40:00.328Z,1.30
2019-05-26T11:42:13.125Z,1.87
2019-05-26T11:44:18.319Z,2.13
2019-05-26T11:46:23.500Z,1.53
2019-05-26T11:48:29.770Z,1.53
2019-05-26T11:50:36.153Z,1.80
2019-05-26T11:52:42.413Z,1.80
2019-05-26T11:54:48.986Z,1.80
2019-05-26T11:56:55.234Z,1.50
2019-05-26T11:59:01.781Z,1.60
2019-05-26T12:01:08.139Z,2.20
2019-05-26T12:03:14.395Z,1.40
2019-05-26T12:05:20.864Z,1.70
2019-05-26T12:07:27.139Z,1.40
2019-05-26T12:09:35.070Z,2.10
2019-05-26T12:11:41.593Z,1.80
2019-05-26T12:13:47.980Z,1.70
2019-05-26T12:15:54.229Z,1.70
2019-05-26T12:18:00.904Z,1.80
2019-05-26T12:20:08.900Z,1.70
2019-05-26T12:22:15.380Z,1.47
2019-05-26T12:24:33.824Z,1.27
2019-05-26T12:26:40.080Z,1.40
2019-05-26T12:28:47.455Z,1.80
2019-05-26T12:30:55.161Z,1.50
2019-05-26T12:33:02.343Z,1.60
2019-05-26T12:35:10.523Z,1.90
2019-05-26T12:37:16.890Z,1.60
2019-05-26T12:39:23.142Z,1.93
2019-05-26T12:41:37.360Z,1.33
2019-05-26T12:43:45.725Z,2.40
2019-05-26T12:45:52.426Z,1.40
2019-05-26T12:47:58.950Z,1.67
2019-05-26T12:50:09.625Z,1.53
2019-05-26T12:52:16.193Z,1.30
2019-05-26T12:54:22.534Z,1.10
2019-05-26T12:56:28.894Z,1.30
2019-05-26T12:58:36.292Z,1.77
2019-05-26T13:00:48.704Z,1.30
2019-05-26T13:02:52.340Z,1.50
2019-05-26T13:04:59.211Z,1.27
2019-05-26T13:07:06.049Z,1.00
2019-05-26T13:09:13.945Z,1.40
2019-05-26T13:11:22.775Z,1.63
2019-05-26T13:13:28.624Z,1.50
2019-05-26T13:15:35.179Z,1.40
2019-05-26T13:17:42.569Z,1.57
2019-05-26T13:19:48.848Z,1.43
2019-05-26T13:21:55.919Z,1.07
2019-05-26T13:24:02.163Z,1.77
2019-05-26T13:26:08.432Z,1.20
2019-05-26T13:28:15.081Z,1.30
2019-05-26T13:30:24.832Z,1.87
2019-05-26T13:32:31.404Z,1.50
2019-05-26T13:34:38.692Z,1.47
2019-05-26T13:36:45.070Z,1.40
2019-05-26T13:38:51.301Z,1.20
2019-05-26T13:40:57.580Z,1.53
2019-05-26T13:43:04.128Z,1.47
2019-05-26T13:45:21.688Z,1.73
2019-05-26T13:47:26.247Z,1.40
2019-05-26T13:49:29.796Z,1.10
2019-05-26T13:51:37.067Z,1.10
2019-05-26T13:53:45.065Z,1.20
2019-05-26T13:55:51.313Z,1.77
2019-05-26T13:58:00.690Z,1.77
2019-05-26T14:00:16.439Z,1.47
2019-05-26T14:02:23.014Z,1.27
2019-05-26T14:04:29.577Z,1.60
2019-05-26T14:06:36.044Z,1.20
2019-05-26T14:08:42.400Z,1.20
2019-05-26T14:10:48.670Z,1.33
2019-05-26T14:12:55.142Z,1.30
2019-05-26T14:15:02.413Z,1.40
2019-05-26T14:17:08.670Z,1.63
2019-05-26T14:19:16.383Z,1.17
2019-05-26T14:21:22.730Z,1.40
2019-05-26T14:23:28.989Z,1.67
2019-05-26T14:25:35.870Z,1.53
2019-05-26T14:27:42.151Z,1.10
2019-05-26T14:29:48.510Z,1.90
2019-05-26T14:31:55.063Z,1.57
2019-05-26T14:34:01.742Z,1.50
2019-05-26T14:36:08.704Z,1.10
2019-05-26T14:38:16.601Z,1.30
2019-05-26T14:40:22.877Z,1.53
2019-05-26T14:42:29.139Z,1.80
2019-05-26T14:44:35.501Z,1.33
2019-05-26T14:46:42.157Z,1.00
2019-05-26T14:48:48.415Z,1.43
2019-05-26T14:50:54.881Z,1.23
2019-05-26T14:53:01.349Z,1.30
2019-05-26T14:55:09.313Z,1.40
2019-05-26T14:57:16.049Z,0.97
2019-05-26T14:59:22.349Z,1.37
2019-05-26T15:01:28.857Z,1.57
2019-05-26T15:03:35.115Z,1.33
2019-05-26T15:05:41.383Z,1.30
2019-05-26T15:07:48.042Z,1.33
2019-05-26T15:09:54.719Z,1.30
2019-05-26T15:12:00.978Z,1.27
2019-05-26T15:14:08.563Z,1.20
2019-05-26T15:16:15.273Z,1.40
2019-05-26T15:18:21.604Z,1.30
2019-05-26T15:20:28.391Z,1.30
2019-05-26T15:22:34.741Z,1.00
2019-05-26T15:24:41.586Z,1.23
2019-05-26T15:26:47.970Z,1.40
2019-05-26T15:28:54.227Z,1.27
2019-05-26T15:31:00.589Z,1.40
2019-05-26T15:33:08.497Z,1.40
2019-05-26T15:35:15.365Z,1.30
2019-05-26T15:37:21.733Z,1.20
2019-05-26T15:39:28.009Z,1.40
2019-05-26T15:41:36.943Z,1.23
2019-05-26T15:43:43.173Z,1.33
2019-05-26T15:45:49.546Z,1.23
2019-05-26T15:47:55.900Z,1.20
2019-05-26T15:50:02.164Z,1.30
2019-05-26T15:52:09.961Z,1.30
2019-05-26T15:54:16.210Z,1.20
2019-05-26T15:56:22.465Z,1.40
2019-05-26T15:58:28.737Z,1.10
2019-05-26T16:00:34.995Z,1.40
2019-05-26T16:02:41.973Z,1.63
2019-05-26T16:04:49.763Z,1.17
2019-05-26T16:06:56.337Z,1.30
2019-05-26T16:09:02.702Z,1.13
2019-05-26T16:11:10.098Z,1.13
2019-05-26T16:13:16.543Z,1.40
2019-05-26T16:15:23.175Z,1.30
2019-05-26T16:17:29.573Z,1.40
2019-05-26T16:19:38.200Z,1.37
2019-05-26T16:21:44.654Z,1.37
2019-05-26T16:23:51.020Z,1.57
2019-05-26T16:25:57.299Z,1.47
2019-05-26T16:28:04.972Z,1.17
2019-05-26T16:30:12.289Z,1.20
2019-05-26T16:32:19.093Z,1.00
2019-05-26T16:34:25.600Z,1.30
2019-05-26T16:36:31.852Z,1.10
2019-05-26T16:38:38.252Z,1.00
2019-05-26T16:40:45.131Z,1.60
2019-05-26T16:42:51.484Z,1.20
2019-05-26T16:44:58.135Z,1.10
2019-05-26T16:47:04.584Z,1.00
2019-05-26T16:49:10.864Z,1.20
2019-05-26T16:51:17.517Z,1.20
2019-05-26T16:53:23.926Z,1.30
2019-05-26T16:55:30.145Z,1.30
2019-05-26T16:57:36.722Z,1.20
2019-05-26T16:59:43.079Z,1.20
2019-05-26T17:01:49.524Z,1.47
2019-05-26T17:03:56.314Z,1.17
2019-05-26T17:06:08.200Z,1.50
2019-05-26T17:08:14.095Z,1.10
2019-05-26T17:10:21.084Z,1.23
2019-05-26T17:12:27.618Z,1.40
2019-05-26T17:14:34.066Z,1.40
2019-05-26T17:16:40.555Z,1.10
2019-05-26T17:18:46.947Z,1.10
2019-05-26T17:20:53.567Z,1.40
2019-05-26T17:23:00.335Z,1.23
2019-05-26T17:25:08.446Z,1.40
2019-05-26T17:27:14.887Z,1.17
2019-05-26T17:29:21.387Z,2.07
2019-05-26T17:31:27.875Z,1.60
2019-05-26T17:33:34.921Z,1.70
2019-05-26T17:35:41.300Z,1.50
2019-05-26T17:37:47.760Z,2.00
2019-05-26T17:39:54.017Z,1.00
2019-05-26T17:42:00.587Z,1.40
2019-05-26T17:44:07.869Z,1.40
2019-05-26T17:46:15.274Z,1.10
2019-05-26T17:48:21.836Z,1.17
2019-05-26T17:50:28.205Z,1.30
2019-05-26T17:52:34.577Z,1.30
2019-05-26T17:54:41.021Z,1.50
2019-05-26T17:56:47.374Z,1.17
2019-05-26T17:58:54.971Z,2.20
2019-05-26T18:01:01.333Z,1.37
2019-05-26T18:03:07.708Z,1.23
2019-05-26T18:05:18.294Z,1.10
2019-05-26T18:07:25.726Z,1.50
2019-05-26T18:09:43.709Z,1.47
2019-05-26T18:11:43.222Z,1.37
2019-05-26T18:13:49.556Z,1.97
2019-05-26T18:15:57.637Z,1.20
2019-05-26T18:18:05.441Z,1.30
2019-05-26T18:20:15.700Z,0.93
2019-05-26T18:22:22.324Z,1.43
2019-05-26T18:24:30.379Z,1.67
2019-05-26T18:26:37.031Z,1.40
2019-05-26T18:28:43.770Z,0.90
2019-05-26T18:30:50.072Z,1.40
2019-05-26T18:32:58.165Z,1.10
2019-05-26T18:35:06.807Z,1.10
2019-05-26T18:37:13.667Z,1.30
2019-05-26T18:39:20.644Z,1.23
2019-05-26T18:41:27.118Z,1.10
2019-05-26T18:43:33.936Z,1.27
2019-05-26T18:45:46.115Z,1.40
2019-05-26T18:48:03.084Z,1.50
2019-05-26T18:50:02.709Z,1.53
2019-05-26T18:52:11.452Z,1.60
2019-05-26T18:54:19.453Z,1.67
2019-05-26T18:56:27.652Z,1.27
2019-05-26T18:58:34.518Z,1.10
2019-05-26T19:00:41.070Z,1.30
2019-05-26T19:02:47.747Z,1.50
2019-05-26T19:04:54.476Z,1.43
2019-05-26T19:07:00.889Z,1.40
2019-05-26T19:09:10.720Z,1.40
2019-05-26T19:11:17.336Z,1.70
2019-05-26T19:13:25.377Z,1.40
2019-05-26T19:15:31.748Z,1.87
2019-05-26T19:17:40.091Z,1.50
2019-05-26T19:19:47.249Z,1.30
2019-05-26T19:21:53.960Z,1.60
2019-05-26T19:24:00.795Z,1.83
2019-05-26T19:26:07.765Z,1.33
2019-05-26T19:28:17.632Z,1.40
2019-05-26T19:30:24.629Z,1.50
2019-05-26T19:32:31.436Z,1.90
2019-05-26T19:34:40.377Z,1.57
2019-05-26T19:36:48.134Z,1.43
2019-05-26T19:38:54.864Z,1.80
2019-05-26T19:41:04.284Z,1.60
2019-05-26T19:43:12.487Z,1.30
2019-05-26T19:45:19.285Z,1.80
2019-05-26T19:47:25.622Z,1.70
2019-05-26T19:49:33.824Z,1.97
2019-05-26T19:51:41.935Z,2.10
2019-05-26T19:53:48.287Z,2.37
2019-05-26T19:55:56.487Z,2.40
2019-05-26T19:58:02.996Z,2.70
2019-05-26T20:00:19.368Z,2.03
2019-05-26T20:02:25.626Z,2.40
2019-05-26T20:04:32.301Z,3.07
2019-05-26T20:06:38.782Z,2.30
2019-05-26T20:08:46.583Z,2.83
2019-05-26T20:10:53.345Z,2.57
2019-05-26T20:13:00.601Z,2.10
2019-05-26T20:15:11.082Z,2.17
2019-05-26T20:17:23.182Z,2.20
2019-05-26T20:19:29.869Z,2.20
2019-05-26T20:21:37.655Z,2.50
2019-05-26T20:23:45.739Z,2.40
2019-05-26T20:25:52.218Z,2.57
2019-05-26T20:28:00.327Z,2.37
2019-05-26T20:30:09.443Z,2.10
2019-05-26T20:32:15.931Z,2.63
2019-05-26T20:34:23.588Z,2.33
2019-05-26T20:36:30.161Z,2.20
2019-05-26T20:38:37.124Z,2.30
2019-05-26T20:40:43.838Z,2.73
2019-05-26T20:42:53.137Z,2.87
2019-05-26T20:45:00.019Z,2.97
2019-05-26T20:47:06.730Z,2.37
2019-05-26T20:49:13.043Z,2.40
2019-05-26T20:51:20.833Z,2.57
2019-05-26T20:53:28.513Z,2.53
2019-05-26T20:55:35.425Z,2.17
2019-05-26T20:57:41.783Z,2.60
2019-05-26T20:59:49.777Z,2.80
2019-05-26T21:01:56.242Z,2.80
2019-05-26T21:04:04.773Z,2.67
2019-05-26T21:06:12.755Z,2.57
2019-05-26T21:08:20.646Z,2.43
2019-05-26T21:10:27.438Z,2.70
2019-05-26T21:12:35.008Z,2.60
2019-05-26T21:14:41.278Z,2.47
2019-05-26T21:16:49.706Z,2.90
2019-05-26T21:18:56.085Z,2.93
2019-05-26T21:21:05.443Z,3.30
2019-05-26T21:23:11.851Z,2.93
2019-05-26T21:25:18.610Z,2.70
2019-05-26T21:27:24.882Z,2.50
2019-05-26T21:29:31.237Z,2.80
2019-05-26T21:31:37.935Z,3.17
2019-05-26T21:33:45.629Z,2.77
2019-05-26T21:35:51.977Z,2.77
2019-05-26T21:37:58.603Z,3.60
2019-05-26T21:40:07.778Z,2.70
2019-05-26T21:42:16.033Z,2.87
2019-05-26T21:44:24.417Z,3.00
2019-05-26T21:46:30.651Z,2.90
2019-05-26T21:48:37.098Z,2.97
2019-05-26T21:50:45.096Z,3.07
2019-05-26T21:52:51.779Z,2.90
2019-05-26T21:54:59.872Z,1.97
2019-05-26T21:57:06.123Z,2.37
2019-05-26T21:59:12.408Z,2.23
2019-05-26T22:01:18.837Z,2.40
2019-05-26T22:03:25.111Z,2.90
2019-05-26T22:05:31.914Z,2.80
2019-05-26T22:07:38.142Z,2.87
2019-05-26T22:09:44.400Z,2.50
2019-05-26T22:11:50.658Z,2.47
2019-05-26T22:13:58.361Z,2.33
2019-05-26T22:16:06.299Z,2.73
2019-05-26T22:18:14.562Z,3.07
2019-05-26T22:20:21.118Z,3.00
2019-05-26T22:22:27.402Z,2.60
2019-05-26T22:24:33.637Z,2.90
2019-05-26T22:26:40.120Z,3.00
2019-05-26T22:28:46.357Z,3.10
2019-05-26T22:30:53.027Z,3.00
2019-05-26T22:32:59.411Z,2.27
2019-05-26T22:35:09.051Z,2.77
2019-05-26T22:37:15.298Z,2.50
2019-05-26T22:39:22.068Z,2.80
2019-05-26T22:41:28.332Z,3.17
2019-05-26T22:43:34.600Z,2.63
2019-05-26T22:45:40.855Z,2.77
2019-05-26T22:47:47.107Z,3.17
2019-05-26T22:49:53.374Z,2.87
2019-05-26T22:51:59.651Z,2.80
2019-05-26T22:54:05.919Z,2.80
2019-05-26T22:56:12.266Z,3.33
2019-05-26T22:58:18.524Z,3.37
2019-05-26T23:00:25.118Z,3.87
2019-05-26T23:02:31.994Z,2.93
2019-05-26T23:04:38.320Z,3.20
2019-05-26T23:06:44.577Z,3.47
2019-05-26T23:08:50.841Z,3.43
2019-05-26T23:10:57.318Z,3.33
2019-05-26T23:13:03.583Z,3.23
2019-05-26T23:15:13.172Z,2.93
2019-05-26T23:17:21.209Z,3.33
2019-05-26T23:19:27.689Z,3.50
2019-05-26T23:21:33.943Z,4.33
2019-05-26T23:23:40.197Z,3.50
2019-05-26T23:25:46.454Z,3.77
2019-05-26T23:27:52.820Z,3.50
2019-05-26T23:30:00.429Z,3.43
2019-05-26T23:32:06.675Z,3.63
2019-05-26T23:34:12.939Z,3.13
2019-05-26T23:36:19.203Z,3.63
2019-05-26T23:38:28.522Z,3.43
2019-05-26T23:40:34.785Z,3.60
2019-05-26T23:42:41.049Z,3.97
2019-05-26T23:44:47.404Z,3.03
2019-05-26T23:46:54.469Z,3.27
2019-05-26T23:49:02.790Z,3.50
2019-05-26T23:51:09.049Z,3.67
2019-05-26T23:53:15.312Z,3.67
2019-05-26T23:55:21.672Z,3.70
2019-05-26T23:57:27.951Z,4.10
2019-05-26T23:59:34.201Z,3.80
